METAR Data
IDs: Format: Raw Decoded Include TAF

Data at: 1923 UTC 25 Oct 2021

KSGS 251915Z AUTO 08004KT 10SM CLR 11/M02 A3013 RMK AO2 T01061024